sensor_id;sensor_type;location;lat;lon;timestamp;P1;durP1;ratioP1;P2;durP2;ratioP2
1360;SDS011;674;45.552;-122.600;2024-03-08T00:00:14;108.97;;;52.67;;
1360;SDS011;674;45.552;-122.600;2024-03-08T00:02:46;107.45;;;51.13;;
1360;SDS011;674;45.552;-122.600;2024-03-08T00:05:18;105.65;;;50.65;;
1360;SDS011;674;45.552;-122.600;2024-03-08T00:07:46;104.93;;;50.22;;
1360;SDS011;674;45.552;-122.600;2024-03-08T00:10:15;105.22;;;50.22;;
1360;SDS011;674;45.552;-122.600;2024-03-08T00:12:44;106.10;;;51.55;;
1360;SDS011;674;45.552;-122.600;2024-03-08T00:15:14;104.93;;;50.25;;
1360;SDS011;674;45.552;-122.600;2024-03-08T00:17:45;106.47;;;51.05;;
1360;SDS011;674;45.552;-122.600;2024-03-08T00:20:16;106.07;;;51.30;;
1360;SDS011;674;45.552;-122.600;2024-03-08T00:22:47;106.30;;;50.63;;
1360;SDS011;674;45.552;-122.600;2024-03-08T00:25:16;106.55;;;51.75;;
1360;SDS011;674;45.552;-122.600;2024-03-08T00:27:45;92.13;;;44.50;;
1360;SDS011;674;45.552;-122.600;2024-03-08T00:30:17;108.90;;;51.97;;
1360;SDS011;674;45.552;-122.600;2024-03-08T00:32:45;106.80;;;51.35;;
1360;SDS011;674;45.552;-122.600;2024-03-08T00:35:14;109.72;;;54.00;;
1360;SDS011;674;45.552;-122.600;2024-03-08T00:37:42;106.90;;;51.78;;
1360;SDS011;674;45.552;-122.600;2024-03-08T00:40:14;105.78;;;51.28;;
1360;SDS011;674;45.552;-122.600;2024-03-08T00:42:42;103.70;;;49.72;;
1360;SDS011;674;45.552;-122.600;2024-03-08T00:45:11;106.47;;;50.42;;
1360;SDS011;674;45.552;-122.600;2024-03-08T00:47:40;101.72;;;49.45;;
1360;SDS011;674;45.552;-122.600;2024-03-08T00:50:11;102.35;;;48.88;;
1360;SDS011;674;45.552;-122.600;2024-03-08T00:52:40;103.47;;;51.13;;
1360;SDS011;674;45.552;-122.600;2024-03-08T00:55:08;84.22;;;41.30;;
1360;SDS011;674;45.552;-122.600;2024-03-08T00:57:38;98.70;;;48.67;;
1360;SDS011;674;45.552;-122.600;2024-03-08T01:00:07;78.13;;;39.17;;
1360;SDS011;674;45.552;-122.600;2024-03-08T01:02:39;78.13;;;39.70;;
1360;SDS011;674;45.552;-122.600;2024-03-08T01:05:08;101.95;;;50.15;;
1360;SDS011;674;45.552;-122.600;2024-03-08T01:07:36;100.10;;;49.78;;
1360;SDS011;674;45.552;-122.600;2024-03-08T01:10:05;77.70;;;39.00;;
1360;SDS011;674;45.552;-122.600;2024-03-08T01:12:37;101.22;;;48.90;;
1360;SDS011;674;45.552;-122.600;2024-03-08T01:15:06;103.45;;;49.67;;
1360;SDS011;674;45.552;-122.600;2024-03-08T01:17:36;100.50;;;49.72;;
1360;SDS011;674;45.552;-122.600;2024-03-08T01:20:05;100.65;;;49.08;;
1360;SDS011;674;45.552;-122.600;2024-03-08T01:22:34;86.97;;;43.08;;
1360;SDS011;674;45.552;-122.600;2024-03-08T01:25:03;101.95;;;49.90;;
1360;SDS011;674;45.552;-122.600;2024-03-08T01:27:32;80.28;;;39.20;;
1360;SDS011;674;45.552;-122.600;2024-03-08T01:30:03;103.97;;;51.80;;
1360;SDS011;674;45.552;-122.600;2024-03-08T01:32:31;95.75;;;46.67;;
1360;SDS011;674;45.552;-122.600;2024-03-08T01:35:01;105.05;;;49.75;;
1360;SDS011;674;45.552;-122.600;2024-03-08T01:37:30;104.50;;;52.28;;
1360;SDS011;674;45.552;-122.600;2024-03-08T01:39:58;99.88;;;48.63;;
1360;SDS011;674;45.552;-122.600;2024-03-08T01:42:27;104.65;;;53.03;;
1360;SDS011;674;45.552;-122.600;2024-03-08T01:44:55;104.88;;;49.67;;
1360;SDS011;674;45.552;-122.600;2024-03-08T01:47:24;80.05;;;37.95;;
1360;SDS011;674;45.552;-122.600;2024-03-08T01:49:53;102.63;;;49.63;;
1360;SDS011;674;45.552;-122.600;2024-03-08T01:52:22;94.40;;;45.08;;
1360;SDS011;674;45.552;-122.600;2024-03-08T01:54:52;100.03;;;47.78;;
1360;SDS011;674;45.552;-122.600;2024-03-08T01:57:21;93.13;;;47.10;;
1360;SDS011;674;45.552;-122.600;2024-03-08T01:59:50;100.97;;;49.15;;
1360;SDS011;674;45.552;-122.600;2024-03-08T02:02:21;103.15;;;49.72;;
1360;SDS011;674;45.552;-122.600;2024-03-08T02:04:50;102.75;;;50.55;;
1360;SDS011;674;45.552;-122.600;2024-03-08T02:07:20;103.78;;;50.00;;
1360;SDS011;674;45.552;-122.600;2024-03-08T02:09:49;85.32;;;42.55;;
1360;SDS011;674;45.552;-122.600;2024-03-08T02:12:18;88.95;;;44.65;;
1360;SDS011;674;45.552;-122.600;2024-03-08T02:14:48;77.25;;;38.22;;
1360;SDS011;674;45.552;-122.600;2024-03-08T02:17:16;97.47;;;47.53;;
1360;SDS011;674;45.552;-122.600;2024-03-08T02:19:45;100.32;;;48.67;;
1360;SDS011;674;45.552;-122.600;2024-03-08T02:22:13;94.75;;;49.33;;
1360;SDS011;674;45.552;-122.600;2024-03-08T02:24:42;94.38;;;47.70;;
1360;SDS011;674;45.552;-122.600;2024-03-08T02:27:11;98.40;;;50.83;;
1360;SDS011;674;45.552;-122.600;2024-03-08T02:29:40;87.68;;;45.92;;
1360;SDS011;674;45.552;-122.600;2024-03-08T02:32:10;102.78;;;49.45;;
1360;SDS011;674;45.552;-122.600;2024-03-08T02:34:38;102.18;;;49.10;;
1360;SDS011;674;45.552;-122.600;2024-03-08T02:37:07;79.53;;;38.60;;
1360;SDS011;674;45.552;-122.600;2024-03-08T02:39:35;100.50;;;47.45;;
1360;SDS011;674;45.552;-122.600;2024-03-08T02:42:04;92.80;;;39.60;;
1360;SDS011;674;45.552;-122.600;2024-03-08T02:44:33;89.20;;;44.42;;
1360;SDS011;674;45.552;-122.600;2024-03-08T02:47:02;100.07;;;47.92;;
1360;SDS011;674;45.552;-122.600;2024-03-08T02:49:31;104.65;;;52.08;;
1360;SDS011;674;45.552;-122.600;2024-03-08T02:51:59;105.03;;;53.33;;
1360;SDS011;674;45.552;-122.600;2024-03-08T02:54:28;104.25;;;50.08;;
1360;SDS011;674;45.552;-122.600;2024-03-08T02:56:57;87.88;;;44.15;;
1360;SDS011;674;45.552;-122.600;2024-03-08T02:59:26;106.18;;;49.67;;
1360;SDS011;674;45.552;-122.600;2024-03-08T03:01:54;95.88;;;40.67;;
1360;SDS011;674;45.552;-122.600;2024-03-08T03:04:23;102.72;;;49.28;;
1360;SDS011;674;45.552;-122.600;2024-03-08T03:06:51;101.10;;;47.45;;
1360;SDS011;674;45.552;-122.600;2024-03-08T03:09:20;75.95;;;35.58;;
1360;SDS011;674;45.552;-122.600;2024-03-08T03:11:54;77.45;;;38.22;;
1360;SDS011;674;45.552;-122.600;2024-03-08T03:14:23;101.25;;;48.80;;
1360;SDS011;674;45.552;-122.600;2024-03-08T03:16:51;101.07;;;47.92;;
1360;SDS011;674;45.552;-122.600;2024-03-08T03:19:21;101.35;;;48.70;;
1360;SDS011;674;45.552;-122.600;2024-03-08T03:21:50;82.88;;;42.90;;
1360;SDS011;674;45.552;-122.600;2024-03-08T03:24:20;73.50;;;36.05;;
1360;SDS011;674;45.552;-122.600;2024-03-08T03:26:48;82.30;;;41.42;;
1360;SDS011;674;45.552;-122.600;2024-03-08T03:29:17;87.55;;;44.00;;
1360;SDS011;674;45.552;-122.600;2024-03-08T03:31:47;91.07;;;45.65;;
1360;SDS011;674;45.552;-122.600;2024-03-08T03:34:15;91.60;;;44.75;;
1360;SDS011;674;45.552;-122.600;2024-03-08T03:36:45;88.22;;;45.30;;
1360;SDS011;674;45.552;-122.600;2024-03-08T03:39:14;90.60;;;45.33;;
1360;SDS011;674;45.552;-122.600;2024-03-08T03:41:47;78.68;;;40.10;;
1360;SDS011;674;45.552;-122.600;2024-03-08T03:44:19;88.07;;;44.72;;
1360;SDS011;674;45.552;-122.600;2024-03-08T03:46:47;79.68;;;41.05;;
1360;SDS011;674;45.552;-122.600;2024-03-08T03:49:16;87.38;;;44.65;;
1360;SDS011;674;45.552;-122.600;2024-03-08T03:51:44;80.25;;;40.15;;
1360;SDS011;674;45.552;-122.600;2024-03-08T03:54:14;83.43;;;41.83;;
1360;SDS011;674;45.552;-122.600;2024-03-08T03:56:42;91.85;;;44.78;;
1360;SDS011;674;45.552;-122.600;2024-03-08T03:59:12;87.70;;;43.92;;
1360;SDS011;674;45.552;-122.600;2024-03-08T04:01:43;81.18;;;41.13;;
1360;SDS011;674;45.552;-122.600;2024-03-08T04:04:12;78.68;;;39.70;;
1360;SDS011;674;45.552;-122.600;2024-03-08T04:06:40;90.93;;;44.58;;
1360;SDS011;674;45.552;-122.600;2024-03-08T04:09:09;90.82;;;46.08;;
1360;SDS011;674;45.552;-122.600;2024-03-08T04:11:39;81.50;;;40.85;;
1360;SDS011;674;45.552;-122.600;2024-03-08T04:14:08;90.10;;;46.22;;
1360;SDS011;674;45.552;-122.600;2024-03-08T04:16:37;88.47;;;45.25;;
1360;SDS011;674;45.552;-122.600;2024-03-08T04:19:08;88.20;;;45.22;;
1360;SDS011;674;45.552;-122.600;2024-03-08T04:21:37;86.13;;;42.60;;
1360;SDS011;674;45.552;-122.600;2024-03-08T04:24:05;84.55;;;43.33;;
1360;SDS011;674;45.552;-122.600;2024-03-08T04:26:34;83.82;;;43.28;;
1360;SDS011;674;45.552;-122.600;2024-03-08T04:29:02;83.68;;;43.40;;
1360;SDS011;674;45.552;-122.600;2024-03-08T04:31:31;83.60;;;42.95;;
1360;SDS011;674;45.552;-122.600;2024-03-08T04:33:59;83.50;;;43.70;;
1360;SDS011;674;45.552;-122.600;2024-03-08T04:36:28;84.03;;;43.20;;
1360;SDS011;674;45.552;-122.600;2024-03-08T04:38:56;85.90;;;42.97;;
1360;SDS011;674;45.552;-122.600;2024-03-08T04:41:25;87.93;;;44.33;;
1360;SDS011;674;45.552;-122.600;2024-03-08T04:43:53;89.90;;;44.47;;
1360;SDS011;674;45.552;-122.600;2024-03-08T04:46:25;96.18;;;47.05;;
1360;SDS011;674;45.552;-122.600;2024-03-08T04:48:54;94.05;;;45.78;;
1360;SDS011;674;45.552;-122.600;2024-03-08T04:51:22;89.13;;;44.58;;
1360;SDS011;674;45.552;-122.600;2024-03-08T04:53:51;89.57;;;43.60;;
1360;SDS011;674;45.552;-122.600;2024-03-08T04:56:19;86.85;;;43.33;;
1360;SDS011;674;45.552;-122.600;2024-03-08T04:58:48;83.22;;;42.55;;
1360;SDS011;674;45.552;-122.600;2024-03-08T05:01:17;84.30;;;42.40;;
1360;SDS011;674;45.552;-122.600;2024-03-08T05:03:45;84.60;;;42.85;;
1360;SDS011;674;45.552;-122.600;2024-03-08T05:06:17;86.70;;;43.72;;
1360;SDS011;674;45.552;-122.600;2024-03-08T05:08:48;87.60;;;43.35;;
1360;SDS011;674;45.552;-122.600;2024-03-08T05:11:16;88.88;;;44.08;;
1360;SDS011;674;45.552;-122.600;2024-03-08T05:13:45;86.15;;;41.72;;
1360;SDS011;674;45.552;-122.600;2024-03-08T05:16:13;89.93;;;44.55;;
1360;SDS011;674;45.552;-122.600;2024-03-08T05:18:42;88.00;;;42.75;;
1360;SDS011;674;45.552;-122.600;2024-03-08T05:21:11;88.80;;;43.45;;
1360;SDS011;674;45.552;-122.600;2024-03-08T05:23:40;88.70;;;43.17;;
1360;SDS011;674;45.552;-122.600;2024-03-08T05:26:09;95.05;;;51.28;;
1360;SDS011;674;45.552;-122.600;2024-03-08T05:28:38;89.38;;;43.72;;
1360;SDS011;674;45.552;-122.600;2024-03-08T05:31:06;90.15;;;43.83;;
1360;SDS011;674;45.552;-122.600;2024-03-08T05:33:35;92.38;;;45.00;;
1360;SDS011;674;45.552;-122.600;2024-03-08T05:36:04;92.05;;;44.83;;
1360;SDS011;674;45.552;-122.600;2024-03-08T05:38:33;91.50;;;43.70;;
1360;SDS011;674;45.552;-122.600;2024-03-08T05:41:02;91.80;;;44.65;;
1360;SDS011;674;45.552;-122.600;2024-03-08T05:43:30;90.90;;;43.72;;
1360;SDS011;674;45.552;-122.600;2024-03-08T05:45:59;94.60;;;46.97;;
1360;SDS011;674;45.552;-122.600;2024-03-08T05:48:27;95.70;;;44.90;;
1360;SDS011;674;45.552;-122.600;2024-03-08T05:50:56;96.50;;;46.92;;
1360;SDS011;674;45.552;-122.600;2024-03-08T05:53:24;97.50;;;46.38;;
1360;SDS011;674;45.552;-122.600;2024-03-08T05:55:54;99.25;;;47.80;;
1360;SDS011;674;45.552;-122.600;2024-03-08T05:58:22;101.15;;;47.72;;
1360;SDS011;674;45.552;-122.600;2024-03-08T06:00:50;103.55;;;49.33;;
1360;SDS011;674;45.552;-122.600;2024-03-08T06:03:19;102.32;;;47.22;;
1360;SDS011;674;45.552;-122.600;2024-03-08T06:05:48;104.55;;;50.28;;
1360;SDS011;674;45.552;-122.600;2024-03-08T06:08:17;102.85;;;48.55;;
1360;SDS011;674;45.552;-122.600;2024-03-08T06:10:46;105.53;;;51.38;;
1360;SDS011;674;45.552;-122.600;2024-03-08T06:13:19;105.03;;;50.53;;
1360;SDS011;674;45.552;-122.600;2024-03-08T06:15:48;102.80;;;48.83;;
1360;SDS011;674;45.552;-122.600;2024-03-08T06:18:17;104.70;;;49.55;;
1360;SDS011;674;45.552;-122.600;2024-03-08T06:20:46;105.85;;;48.53;;
1360;SDS011;674;45.552;-122.600;2024-03-08T06:23:14;98.55;;;45.83;;
1360;SDS011;674;45.552;-122.600;2024-03-08T06:25:46;91.05;;;43.83;;
1360;SDS011;674;45.552;-122.600;2024-03-08T06:28:14;105.90;;;49.38;;
1360;SDS011;674;45.552;-122.600;2024-03-08T06:30:44;106.75;;;51.50;;
1360;SDS011;674;45.552;-122.600;2024-03-08T06:33:12;99.78;;;46.20;;
1360;SDS011;674;45.552;-122.600;2024-03-08T06:35:41;98.35;;;45.20;;
1360;SDS011;674;45.552;-122.600;2024-03-08T06:38:09;107.10;;;50.45;;
1360;SDS011;674;45.552;-122.600;2024-03-08T06:40:38;98.53;;;45.92;;
1360;SDS011;674;45.552;-122.600;2024-03-08T06:43:07;106.75;;;48.65;;
1360;SDS011;674;45.552;-122.600;2024-03-08T06:45:38;93.22;;;43.08;;
1360;SDS011;674;45.552;-122.600;2024-03-08T06:48:07;88.20;;;43.20;;
1360;SDS011;674;45.552;-122.600;2024-03-08T06:50:37;94.07;;;42.95;;
1360;SDS011;674;45.552;-122.600;2024-03-08T06:53:05;99.70;;;45.00;;
1360;SDS011;674;45.552;-122.600;2024-03-08T06:55:34;107.85;;;49.17;;
1360;SDS011;674;45.552;-122.600;2024-03-08T06:58:02;100.30;;;45.45;;
1360;SDS011;674;45.552;-122.600;2024-03-08T07:00:31;100.85;;;47.13;;
1360;SDS011;674;45.552;-122.600;2024-03-08T07:03:00;106.13;;;47.63;;
1360;SDS011;674;45.552;-122.600;2024-03-08T07:05:29;103.10;;;48.35;;
1360;SDS011;674;45.552;-122.600;2024-03-08T07:07:58;105.00;;;50.22;;
1360;SDS011;674;45.552;-122.600;2024-03-08T07:10:26;104.95;;;48.60;;
1360;SDS011;674;45.552;-122.600;2024-03-08T07:12:56;102.25;;;47.00;;
1360;SDS011;674;45.552;-122.600;2024-03-08T07:15:24;102.53;;;48.20;;
1360;SDS011;674;45.552;-122.600;2024-03-08T07:17:53;101.45;;;47.15;;
1360;SDS011;674;45.552;-122.600;2024-03-08T07:20:21;100.72;;;46.85;;
1360;SDS011;674;45.552;-122.600;2024-03-08T07:22:50;101.78;;;47.20;;
1360;SDS011;674;45.552;-122.600;2024-03-08T07:25:18;100.45;;;47.17;;
1360;SDS011;674;45.552;-122.600;2024-03-08T07:27:48;99.90;;;46.17;;
1360;SDS011;674;45.552;-122.600;2024-03-08T07:30:17;96.20;;;44.42;;
1360;SDS011;674;45.552;-122.600;2024-03-08T07:33:05;100.78;;;46.28;;
1360;SDS011;674;45.552;-122.600;2024-03-08T07:35:39;96.05;;;45.33;;
1360;SDS011;674;45.552;-122.600;2024-03-08T07:38:09;97.55;;;45.92;;
1360;SDS011;674;45.552;-122.600;2024-03-08T07:40:39;96.72;;;45.75;;
1360;SDS011;674;45.552;-122.600;2024-03-08T07:43:12;98.20;;;47.10;;
1360;SDS011;674;45.552;-122.600;2024-03-08T07:45:41;106.03;;;48.80;;
1360;SDS011;674;45.552;-122.600;2024-03-08T07:48:09;100.78;;;46.75;;
1360;SDS011;674;45.552;-122.600;2024-03-08T07:50:38;96.68;;;44.03;;
1360;SDS011;674;45.552;-122.600;2024-03-08T07:53:08;97.35;;;44.28;;
1360;SDS011;674;45.552;-122.600;2024-03-08T07:55:37;97.53;;;43.83;;
1360;SDS011;674;45.552;-122.600;2024-03-08T07:58:07;99.40;;;45.80;;
1360;SDS011;674;45.552;-122.600;2024-03-08T08:00:38;98.93;;;44.80;;
1360;SDS011;674;45.552;-122.600;2024-03-08T08:03:06;106.53;;;48.97;;
1360;SDS011;674;45.552;-122.600;2024-03-08T08:05:36;100.25;;;46.35;;
1360;SDS011;674;45.552;-122.600;2024-03-08T08:08:07;98.80;;;45.10;;
1360;SDS011;674;45.552;-122.600;2024-03-08T08:10:38;99.47;;;44.60;;
1360;SDS011;674;45.552;-122.600;2024-03-08T08:13:09;100.70;;;45.67;;
1360;SDS011;674;45.552;-122.600;2024-03-08T08:15:38;101.70;;;45.80;;
1360;SDS011;674;45.552;-122.600;2024-03-08T08:18:07;102.22;;;45.08;;
1360;SDS011;674;45.552;-122.600;2024-03-08T08:20:37;102.45;;;46.03;;
1360;SDS011;674;45.552;-122.600;2024-03-08T08:23:05;100.82;;;44.33;;
1360;SDS011;674;45.552;-122.600;2024-03-08T08:25:34;101.00;;;45.13;;
1360;SDS011;674;45.552;-122.600;2024-03-08T08:28:02;102.25;;;46.05;;
1360;SDS011;674;45.552;-122.600;2024-03-08T08:30:31;102.30;;;45.33;;
1360;SDS011;674;45.552;-122.600;2024-03-08T08:33:00;101.50;;;45.15;;
1360;SDS011;674;45.552;-122.600;2024-03-08T08:35:29;101.43;;;45.92;;
1360;SDS011;674;45.552;-122.600;2024-03-08T08:37:57;102.80;;;46.20;;
1360;SDS011;674;45.552;-122.600;2024-03-08T08:40:26;107.47;;;50.20;;
1360;SDS011;674;45.552;-122.600;2024-03-08T08:42:56;107.65;;;48.45;;
1360;SDS011;674;45.552;-122.600;2024-03-08T08:45:27;107.15;;;48.15;;
1360;SDS011;674;45.552;-122.600;2024-03-08T08:47:56;106.57;;;49.17;;
1360;SDS011;674;45.552;-122.600;2024-03-08T08:50:27;100.22;;;46.90;;
1360;SDS011;674;45.552;-122.600;2024-03-08T08:52:55;99.93;;;45.47;;
1360;SDS011;674;45.552;-122.600;2024-03-08T08:55:27;100.18;;;45.63;;
1360;SDS011;674;45.552;-122.600;2024-03-08T08:57:56;99.10;;;45.35;;
1360;SDS011;674;45.552;-122.600;2024-03-08T09:00:24;99.78;;;45.88;;
1360;SDS011;674;45.552;-122.600;2024-03-08T09:02:54;99.95;;;45.10;;
1360;SDS011;674;45.552;-122.600;2024-03-08T09:05:25;101.32;;;46.05;;
1360;SDS011;674;45.552;-122.600;2024-03-08T09:07:54;98.15;;;44.35;;
1360;SDS011;674;45.552;-122.600;2024-03-08T09:10:23;101.32;;;46.88;;
1360;SDS011;674;45.552;-122.600;2024-03-08T09:12:54;101.38;;;46.03;;
1360;SDS011;674;45.552;-122.600;2024-03-08T09:15:23;101.25;;;45.85;;
1360;SDS011;674;45.552;-122.600;2024-03-08T09:17:54;103.70;;;45.28;;
1360;SDS011;674;45.552;-122.600;2024-03-08T09:20:23;103.90;;;46.20;;
1360;SDS011;674;45.552;-122.600;2024-03-08T09:22:52;101.43;;;44.72;;
1360;SDS011;674;45.552;-122.600;2024-03-08T09:25:21;105.28;;;48.17;;
1360;SDS011;674;45.552;-122.600;2024-03-08T09:27:50;104.70;;;45.53;;
1360;SDS011;674;45.552;-122.600;2024-03-08T09:30:18;104.32;;;45.20;;
1360;SDS011;674;45.552;-122.600;2024-03-08T09:32:48;103.78;;;44.95;;
1360;SDS011;674;45.552;-122.600;2024-03-08T09:35:19;104.45;;;46.15;;
1360;SDS011;674;45.552;-122.600;2024-03-08T09:37:47;104.43;;;45.42;;
1360;SDS011;674;45.552;-122.600;2024-03-08T09:40:18;102.40;;;45.78;;
1360;SDS011;674;45.552;-122.600;2024-03-08T09:42:47;102.80;;;45.40;;
1360;SDS011;674;45.552;-122.600;2024-03-08T09:45:16;105.30;;;46.25;;
1360;SDS011;674;45.552;-122.600;2024-03-08T09:47:45;103.63;;;45.83;;
1360;SDS011;674;45.552;-122.600;2024-03-08T09:50:16;103.25;;;45.47;;
1360;SDS011;674;45.552;-122.600;2024-03-08T09:52:46;102.63;;;45.97;;
1360;SDS011;674;45.552;-122.600;2024-03-08T09:55:16;103.15;;;46.35;;
1360;SDS011;674;45.552;-122.600;2024-03-08T09:57:50;102.47;;;45.33;;
1360;SDS011;674;45.552;-122.600;2024-03-08T10:00:39;106.43;;;50.05;;
1360;SDS011;674;45.552;-122.600;2024-03-08T10:03:08;107.93;;;49.75;;
1360;SDS011;674;45.552;-122.600;2024-03-08T10:05:43;106.30;;;46.70;;
1360;SDS011;674;45.552;-122.600;2024-03-08T10:08:12;104.60;;;46.13;;
1360;SDS011;674;45.552;-122.600;2024-03-08T10:10:40;106.95;;;47.97;;
1360;SDS011;674;45.552;-122.600;2024-03-08T10:13:10;102.93;;;44.58;;
1360;SDS011;674;45.552;-122.600;2024-03-08T10:15:44;105.45;;;46.03;;
1360;SDS011;674;45.552;-122.600;2024-03-08T10:18:12;109.20;;;47.70;;
1360;SDS011;674;45.552;-122.600;2024-03-08T10:20:41;109.63;;;46.35;;
1360;SDS011;674;45.552;-122.600;2024-03-08T10:23:10;109.03;;;46.67;;
1360;SDS011;674;45.552;-122.600;2024-03-08T10:25:39;110.60;;;48.50;;
1360;SDS011;674;45.552;-122.600;2024-03-08T10:28:07;109.82;;;46.38;;
1360;SDS011;674;45.552;-122.600;2024-03-08T10:30:36;110.07;;;46.72;;
1360;SDS011;674;45.552;-122.600;2024-03-08T10:33:04;108.50;;;44.75;;
1360;SDS011;674;45.552;-122.600;2024-03-08T10:35:34;110.20;;;45.78;;
1360;SDS011;674;45.552;-122.600;2024-03-08T10:38:02;112.60;;;46.78;;
1360;SDS011;674;45.552;-122.600;2024-03-08T10:40:36;115.40;;;47.72;;
1360;SDS011;674;45.552;-122.600;2024-03-08T10:43:10;115.55;;;47.58;;
1360;SDS011;674;45.552;-122.600;2024-03-08T10:45:58;116.32;;;47.33;;
1360;SDS011;674;45.552;-122.600;2024-03-08T10:48:43;113.93;;;45.55;;
1360;SDS011;674;45.552;-122.600;2024-03-08T10:51:13;113.47;;;47.00;;
1360;SDS011;674;45.552;-122.600;2024-03-08T10:53:42;114.65;;;47.95;;
1360;SDS011;674;45.552;-122.600;2024-03-08T10:56:13;117.28;;;49.47;;
1360;SDS011;674;45.552;-122.600;2024-03-08T10:58:42;116.38;;;49.22;;
1360;SDS011;674;45.552;-122.600;2024-03-08T11:01:11;116.07;;;46.42;;
1360;SDS011;674;45.552;-122.600;2024-03-08T11:06:22;116.38;;;46.05;;
1360;SDS011;674;45.552;-122.600;2024-03-08T11:08:51;115.65;;;46.15;;
1360;SDS011;674;45.552;-122.600;2024-03-08T11:11:26;112.95;;;46.78;;
1360;SDS011;674;45.552;-122.600;2024-03-08T11:14:00;112.25;;;46.70;;
1360;SDS011;674;45.552;-122.600;2024-03-08T11:19:05;112.05;;;45.88;;
1360;SDS011;674;45.552;-122.600;2024-03-08T11:21:58;112.93;;;46.70;;
1360;SDS011;674;45.552;-122.600;2024-03-08T11:24:27;111.28;;;45.38;;
1360;SDS011;674;45.552;-122.600;2024-03-08T11:27:05;109.25;;;45.78;;
1360;SDS011;674;45.552;-122.600;2024-03-08T11:29:34;106.18;;;43.90;;
1360;SDS011;674;45.552;-122.600;2024-03-08T11:32:26;110.75;;;46.55;;
1360;SDS011;674;45.552;-122.600;2024-03-08T11:34:55;109.38;;;45.10;;
1360;SDS011;674;45.552;-122.600;2024-03-08T11:37:24;109.32;;;46.40;;
1360;SDS011;674;45.552;-122.600;2024-03-08T11:39:57;110.68;;;48.20;;
1360;SDS011;674;45.552;-122.600;2024-03-08T11:42:26;109.82;;;47.15;;
1360;SDS011;674;45.552;-122.600;2024-03-08T11:44:55;110.00;;;47.65;;
1360;SDS011;674;45.552;-122.600;2024-03-08T11:47:23;107.88;;;46.47;;
1360;SDS011;674;45.552;-122.600;2024-03-08T11:49:53;107.15;;;46.35;;
1360;SDS011;674;45.552;-122.600;2024-03-08T11:52:22;102.45;;;43.55;;
1360;SDS011;674;45.552;-122.600;2024-03-08T11:54:53;105.55;;;45.78;;
1360;SDS011;674;45.552;-122.600;2024-03-08T11:57:25;107.78;;;47.75;;
1360;SDS011;674;45.552;-122.600;2024-03-08T11:59:55;105.13;;;45.45;;
1360;SDS011;674;45.552;-122.600;2024-03-08T12:02:33;106.25;;;48.50;;
1360;SDS011;674;45.552;-122.600;2024-03-08T12:05:05;105.00;;;46.55;;
1360;SDS011;674;45.552;-122.600;2024-03-08T12:07:36;104.18;;;45.60;;
1360;SDS011;674;45.552;-122.600;2024-03-08T12:12:49;102.28;;;45.08;;
1360;SDS011;674;45.552;-122.600;2024-03-08T12:15:22;102.65;;;46.38;;
1360;SDS011;674;45.552;-122.600;2024-03-08T12:17:52;104.05;;;46.22;;
1360;SDS011;674;45.552;-122.600;2024-03-08T12:20:24;102.40;;;45.05;;
1360;SDS011;674;45.552;-122.600;2024-03-08T12:22:53;104.68;;;45.28;;
1360;SDS011;674;45.552;-122.600;2024-03-08T12:25:32;102.05;;;45.53;;
1360;SDS011;674;45.552;-122.600;2024-03-08T12:28:08;102.15;;;45.88;;
1360;SDS011;674;45.552;-122.600;2024-03-08T12:30:47;104.30;;;48.05;;
1360;SDS011;674;45.552;-122.600;2024-03-08T12:33:23;104.03;;;45.80;;
1360;SDS011;674;45.552;-122.600;2024-03-08T12:35:52;106.57;;;47.45;;
1360;SDS011;674;45.552;-122.600;2024-03-08T12:38:23;105.68;;;47.25;;
1360;SDS011;674;45.552;-122.600;2024-03-08T12:40:55;106.28;;;48.13;;
1360;SDS011;674;45.552;-122.600;2024-03-08T12:43:26;106.93;;;48.00;;
1360;SDS011;674;45.552;-122.600;2024-03-08T12:45:58;108.70;;;50.60;;
1360;SDS011;674;45.552;-122.600;2024-03-08T12:48:27;102.65;;;45.38;;
1360;SDS011;674;45.552;-122.600;2024-03-08T12:50:55;101.55;;;44.85;;
1360;SDS011;674;45.552;-122.600;2024-03-08T12:53:24;100.85;;;43.75;;
1360;SDS011;674;45.552;-122.600;2024-03-08T12:55:56;103.63;;;47.22;;
1360;SDS011;674;45.552;-122.600;2024-03-08T12:58:24;100.70;;;44.03;;
1360;SDS011;674;45.552;-122.600;2024-03-08T13:00:56;99.75;;;44.85;;
1360;SDS011;674;45.552;-122.600;2024-03-08T13:03:24;97.50;;;44.75;;
1360;SDS011;674;45.552;-122.600;2024-03-08T13:05:53;98.65;;;45.22;;
1360;SDS011;674;45.552;-122.600;2024-03-08T13:08:24;97.50;;;44.08;;
1360;SDS011;674;45.552;-122.600;2024-03-08T13:10:55;98.93;;;45.65;;
1360;SDS011;674;45.552;-122.600;2024-03-08T13:13:23;99.45;;;44.42;;
1360;SDS011;674;45.552;-122.600;2024-03-08T13:15:52;99.13;;;45.80;;
1360;SDS011;674;45.552;-122.600;2024-03-08T13:18:20;97.65;;;45.17;;
1360;SDS011;674;45.552;-122.600;2024-03-08T13:20:49;99.53;;;44.03;;
1360;SDS011;674;45.552;-122.600;2024-03-08T13:23:19;100.43;;;44.58;;
1360;SDS011;674;45.552;-122.600;2024-03-08T13:25:47;102.43;;;46.22;;
1360;SDS011;674;45.552;-122.600;2024-03-08T13:28:16;100.68;;;43.88;;
1360;SDS011;674;45.552;-122.600;2024-03-08T13:30:50;102.85;;;46.42;;
1360;SDS011;674;45.552;-122.600;2024-03-08T13:33:25;102.30;;;45.42;;
1360;SDS011;674;45.552;-122.600;2024-03-08T13:35:54;98.45;;;43.33;;
1360;SDS011;674;45.552;-122.600;2024-03-08T13:38:31;98.20;;;44.38;;
1360;SDS011;674;45.552;-122.600;2024-03-08T13:41:03;99.72;;;45.28;;
1360;SDS011;674;45.552;-122.600;2024-03-08T13:43:32;97.95;;;45.70;;
1360;SDS011;674;45.552;-122.600;2024-03-08T13:46:02;97.40;;;45.35;;
1360;SDS011;674;45.552;-122.600;2024-03-08T13:48:31;96.85;;;44.22;;
1360;SDS011;674;45.552;-122.600;2024-03-08T13:51:00;98.68;;;44.00;;
1360;SDS011;674;45.552;-122.600;2024-03-08T13:53:29;100.00;;;45.47;;
1360;SDS011;674;45.552;-122.600;2024-03-08T13:55:57;99.43;;;44.35;;
1360;SDS011;674;45.552;-122.600;2024-03-08T13:58:27;96.95;;;43.60;;
1360;SDS011;674;45.552;-122.600;2024-03-08T14:00:56;96.60;;;44.60;;
1360;SDS011;674;45.552;-122.600;2024-03-08T14:03:25;96.85;;;44.05;;
1360;SDS011;674;45.552;-122.600;2024-03-08T14:05:53;94.90;;;43.55;;
1360;SDS011;674;45.552;-122.600;2024-03-08T14:08:26;94.15;;;43.70;;
1360;SDS011;674;45.552;-122.600;2024-03-08T14:10:54;93.07;;;43.50;;
1360;SDS011;674;45.552;-122.600;2024-03-08T14:13:23;93.85;;;43.75;;
1360;SDS011;674;45.552;-122.600;2024-03-08T14:15:52;93.57;;;43.70;;
1360;SDS011;674;45.552;-122.600;2024-03-08T14:18:21;92.80;;;44.38;;
1360;SDS011;674;45.552;-122.600;2024-03-08T14:20:49;92.10;;;43.30;;
1360;SDS011;674;45.552;-122.600;2024-03-08T14:23:18;92.05;;;43.88;;
1360;SDS011;674;45.552;-122.600;2024-03-08T14:25:49;92.72;;;43.95;;
1360;SDS011;674;45.552;-122.600;2024-03-08T14:28:19;90.63;;;41.53;;
1360;SDS011;674;45.552;-122.600;2024-03-08T14:30:50;90.40;;;42.80;;
1360;SDS011;674;45.552;-122.600;2024-03-08T14:33:19;89.80;;;42.67;;
1360;SDS011;674;45.552;-122.600;2024-03-08T14:35:48;89.55;;;43.08;;